createdAt,value
2017-09-02T00:00:15.484Z,13.60
2017-09-02T00:02:42.952Z,13.50
2017-09-02T00:05:10.603Z,13.40
2017-09-02T00:07:38.076Z,13.40
2017-09-02T00:10:05.604Z,13.30
2017-09-02T00:12:33.100Z,13.30
2017-09-02T00:15:00.579Z,13.30
2017-09-02T00:17:28.039Z,13.30
2017-09-02T00:19:55.633Z,13.40
2017-09-02T00:22:23.192Z,13.40
2017-09-02T00:24:50.666Z,13.40
2017-09-02T00:27:18.112Z,13.50
2017-09-02T00:29:45.591Z,13.60
2017-09-02T00:32:13.068Z,13.70
2017-09-02T00:34:40.526Z,13.70
2017-09-02T00:37:08.007Z,13.80
2017-09-02T00:39:35.468Z,13.80
2017-09-02T00:42:02.959Z,13.90
2017-09-02T00:44:30.414Z,13.90
2017-09-02T00:46:57.991Z,13.90
2017-09-02T00:49:25.455Z,13.90
2017-09-02T00:51:52.940Z,13.90
2017-09-02T00:54:20.399Z,13.90
2017-09-02T00:56:47.989Z,13.80
2017-09-02T00:59:15.455Z,13.80
2017-09-02T01:01:42.922Z,13.80
2017-09-02T01:04:10.398Z,13.80
2017-09-02T01:06:37.864Z,13.80
2017-09-02T01:09:05.358Z,13.70
2017-09-02T01:11:32.831Z,13.70
2017-09-02T01:14:00.300Z,13.70
2017-09-02T01:16:27.787Z,13.70
2017-09-02T01:18:55.266Z,13.60
2017-09-02T01:21:22.727Z,13.70
2017-09-02T01:23:50.314Z,13.70
2017-09-02T01:26:17.778Z,13.70
2017-09-02T01:28:45.254Z,13.70
2017-09-02T01:31:12.786Z,13.80
2017-09-02T01:33:40.255Z,13.80
2017-09-02T01:36:07.726Z,13.90
2017-09-02T01:38:35.186Z,13.90
2017-09-02T01:41:02.668Z,14.00
2017-09-02T01:43:30.123Z,14.00
2017-09-02T01:45:57.600Z,14.00
2017-09-02T01:48:25.067Z,14.00
2017-09-02T01:50:52.546Z,14.00
2017-09-02T01:53:20.007Z,14.00
2017-09-02T01:55:47.467Z,14.00
2017-09-02T01:58:14.947Z,14.00
2017-09-02T02:00:42.403Z,14.00
2017-09-02T02:03:09.895Z,14.00
2017-09-02T02:05:37.356Z,14.00
2017-09-02T02:08:04.819Z,14.00
2017-09-02T02:10:32.295Z,13.90
2017-09-02T02:12:59.775Z,14.00
2017-09-02T02:15:27.259Z,14.00
2017-09-02T02:17:54.723Z,14.00
2017-09-02T02:20:22.216Z,13.90
2017-09-02T02:22:49.678Z,13.90
2017-09-02T02:25:17.166Z,13.90
2017-09-02T02:27:44.635Z,13.90
2017-09-02T02:30:12.087Z,13.80
2017-09-02T02:32:39.574Z,13.80
2017-09-02T02:35:07.061Z,13.90
2017-09-02T02:37:34.524Z,13.90
2017-09-02T02:40:01.984Z,13.90
2017-09-02T02:42:29.458Z,13.90
2017-09-02T02:44:56.918Z,13.90
2017-09-02T02:47:24.383Z,13.90
2017-09-02T02:49:51.862Z,13.90
2017-09-02T02:52:19.319Z,13.90
2017-09-02T02:54:46.796Z,13.90
2017-09-02T02:57:14.268Z,13.90
2017-09-02T02:59:41.739Z,13.90
2017-09-02T03:02:09.199Z,13.90
2017-09-02T03:04:36.672Z,13.90
2017-09-02T03:07:04.149Z,13.90
2017-09-02T03:09:31.646Z,13.90
2017-09-02T03:11:59.122Z,13.90
2017-09-02T03:14:26.575Z,13.90
2017-09-02T03:16:54.059Z,14.00
2017-09-02T03:19:21.529Z,13.90
2017-09-02T03:21:48.994Z,14.00
2017-09-02T03:24:17.244Z,14.00
2017-09-02T03:26:44.702Z,14.00
2017-09-02T03:29:12.163Z,14.00
2017-09-02T03:31:39.633Z,14.00
2017-09-02T03:34:07.119Z,14.00
2017-09-02T03:36:34.578Z,14.00
2017-09-02T03:39:02.057Z,14.00
2017-09-02T03:41:29.541Z,14.10
2017-09-02T03:43:57.011Z,14.10
2017-09-02T03:46:24.515Z,14.10
2017-09-02T03:48:52.076Z,14.10
2017-09-02T03:51:19.531Z,14.10
2017-09-02T03:53:47.008Z,14.10
2017-09-02T03:56:14.471Z,14.00
2017-09-02T03:58:41.946Z,14.10
2017-09-02T04:01:09.406Z,14.10
2017-09-02T04:03:36.870Z,14.10
2017-09-02T04:06:04.343Z,14.10
2017-09-02T04:08:31.814Z,14.10
2017-09-02T04:10:59.291Z,14.10
2017-09-02T04:13:26.773Z,14.00
2017-09-02T04:15:54.256Z,14.00
2017-09-02T04:18:21.719Z,14.00
2017-09-02T04:20:49.209Z,14.00
2017-09-02T04:23:16.666Z,13.90
2017-09-02T04:25:44.201Z,13.90
2017-09-02T04:28:11.676Z,13.90
2017-09-02T04:30:39.142Z,13.90
2017-09-02T04:33:06.616Z,13.90
2017-09-02T04:35:34.088Z,13.90
2017-09-02T04:38:01.547Z,13.90
2017-09-02T04:40:29.042Z,13.90
2017-09-02T04:42:56.527Z,14.00
2017-09-02T04:45:23.984Z,14.00
2017-09-02T04:47:51.439Z,14.00
2017-09-02T04:50:18.934Z,14.00
2017-09-02T04:52:46.387Z,13.90
2017-09-02T04:55:13.856Z,13.90
2017-09-02T04:57:41.350Z,13.90
2017-09-02T05:00:08.812Z,14.00
2017-09-02T05:02:36.270Z,14.00
2017-09-02T05:05:03.739Z,13.90
2017-09-02T05:07:31.252Z,14.00
2017-09-02T05:09:58.700Z,14.00
2017-09-02T05:12:26.197Z,14.00
2017-09-02T05:14:53.755Z,14.00
2017-09-02T05:17:21.313Z,14.00
2017-09-02T05:19:48.775Z,14.00
2017-09-02T05:22:16.246Z,13.90
2017-09-02T05:24:43.726Z,13.90
2017-09-02T05:27:11.184Z,13.80
2017-09-02T05:29:38.682Z,13.90
2017-09-02T05:32:06.151Z,13.90
2017-09-02T05:34:33.611Z,13.90
2017-09-02T05:37:01.095Z,13.90
2017-09-02T05:39:28.577Z,13.90
2017-09-02T05:41:56.037Z,13.90
2017-09-02T05:44:23.536Z,14.00
2017-09-02T05:46:51.011Z,14.10
2017-09-02T05:49:18.471Z,14.10
2017-09-02T05:51:45.946Z,14.20
2017-09-02T05:54:13.435Z,14.30
2017-09-02T05:56:40.903Z,14.30
2017-09-02T05:59:08.389Z,14.30
2017-09-02T06:01:35.843Z,14.40
2017-09-02T06:04:03.331Z,14.40
2017-09-02T06:06:30.791Z,14.40
2017-09-02T06:08:58.280Z,14.40
2017-09-02T06:11:25.866Z,14.50
2017-09-02T06:13:53.331Z,14.50
2017-09-02T06:16:20.815Z,14.60
2017-09-02T06:18:48.266Z,14.70
2017-09-02T06:21:15.739Z,14.90
2017-09-02T06:23:43.211Z,15.00
2017-09-02T06:26:10.667Z,15.10
2017-09-02T06:28:38.152Z,15.20
2017-09-02T06:31:05.614Z,15.20
2017-09-02T06:33:33.092Z,15.30
2017-09-02T06:36:00.559Z,15.40
2017-09-02T06:38:28.034Z,15.60
2017-09-02T06:40:55.500Z,15.70
2017-09-02T06:43:23.019Z,15.70
2017-09-02T06:45:50.480Z,15.40
2017-09-02T06:48:17.975Z,15.40
2017-09-02T06:50:45.435Z,15.30
2017-09-02T06:53:12.909Z,15.30
2017-09-02T06:55:40.377Z,15.30
2017-09-02T06:58:07.835Z,15.30
2017-09-02T07:00:35.323Z,15.40
2017-09-02T07:03:02.795Z,15.50
2017-09-02T07:05:30.270Z,15.60
2017-09-02T07:07:57.752Z,15.70
2017-09-02T07:10:25.220Z,15.70
2017-09-02T07:12:52.698Z,15.80
2017-09-02T07:15:20.167Z,16.00
2017-09-02T07:17:47.623Z,16.20
2017-09-02T07:20:15.099Z,16.20
2017-09-02T07:25:06.594Z,16.50
2017-09-02T07:27:34.054Z,16.50
2017-09-02T07:30:01.542Z,16.60
2017-09-02T07:32:29.007Z,16.70
2017-09-02T07:34:56.483Z,16.80
2017-09-02T07:37:23.967Z,16.80
2017-09-02T07:39:51.461Z,16.70
2017-09-02T07:42:18.915Z,16.70
2017-09-02T07:44:46.382Z,16.80
2017-09-02T07:47:13.881Z,16.80
2017-09-02T07:49:41.351Z,16.80
2017-09-02T07:52:08.819Z,16.90
2017-09-02T07:54:36.299Z,17.00
2017-09-02T07:57:03.772Z,17.00
2017-09-02T07:59:31.241Z,17.00
2017-09-02T08:01:59.482Z,17.00
2017-09-02T08:04:26.954Z,17.00
2017-09-02T08:06:54.406Z,17.10
2017-09-02T08:09:21.890Z,17.30
2017-09-02T08:11:49.444Z,17.40
2017-09-02T08:14:17.675Z,17.30
2017-09-02T08:16:45.152Z,17.20
2017-09-02T08:19:12.642Z,17.40
2017-09-02T08:21:40.105Z,17.40
2017-09-02T08:24:07.585Z,17.50
2017-09-02T08:26:35.134Z,17.60
2017-09-02T08:29:02.594Z,17.80
2017-09-02T08:31:30.063Z,17.90
2017-09-02T08:33:57.540Z,18.00
2017-09-02T08:36:25.003Z,17.90
2017-09-02T08:38:52.482Z,18.10
2017-09-02T08:41:19.970Z,18.20
2017-09-02T08:43:47.428Z,18.20
2017-09-02T08:46:14.890Z,18.40
2017-09-02T08:48:42.379Z,18.50
2017-09-02T08:51:09.878Z,18.50
2017-09-02T08:53:37.351Z,18.50
2017-09-02T08:56:04.852Z,18.80
2017-09-02T08:58:32.312Z,19.00
2017-09-02T09:00:59.786Z,19.10
2017-09-02T09:03:27.283Z,19.20
2017-09-02T09:05:54.842Z,19.10
2017-09-02T09:08:22.317Z,19.20
2017-09-02T09:10:49.782Z,19.20
2017-09-02T09:13:17.267Z,19.00
2017-09-02T09:15:44.722Z,18.90
2017-09-02T09:18:12.208Z,18.80
2017-09-02T09:20:39.696Z,19.00
2017-09-02T09:23:07.155Z,19.30
2017-09-02T09:25:34.617Z,19.80
2017-09-02T09:28:02.099Z,20.10
2017-09-02T09:30:29.586Z,20.20
2017-09-02T09:32:57.070Z,20.20
2017-09-02T09:35:24.530Z,20.00
2017-09-02T09:37:51.995Z,20.00
2017-09-02T09:40:19.458Z,19.40
2017-09-02T09:42:46.919Z,19.30
2017-09-02T09:45:14.391Z,19.30
2017-09-02T09:47:41.855Z,19.50
2017-09-02T09:50:09.322Z,19.80
2017-09-02T09:52:36.827Z,20.30
2017-09-02T09:55:04.287Z,20.80
2017-09-02T09:57:31.772Z,21.40
2017-09-02T09:59:59.238Z,21.70
2017-09-02T10:02:26.694Z,21.90
2017-09-02T10:04:54.170Z,22.90
2017-09-02T10:07:21.653Z,23.60
2017-09-02T10:09:49.131Z,24.80
2017-09-02T10:12:16.609Z,25.10
2017-09-02T10:14:44.063Z,25.50
2017-09-02T10:17:11.531Z,26.40
2017-09-02T10:19:38.999Z,26.20
2017-09-02T10:22:06.443Z,27.00
2017-09-02T10:24:33.914Z,26.20
2017-09-02T10:27:01.371Z,25.40
2017-09-02T10:29:28.855Z,26.00
2017-09-02T10:31:56.315Z,27.10
2017-09-02T10:34:23.808Z,27.80
2017-09-02T10:36:51.262Z,27.70
2017-09-02T10:39:18.716Z,26.60
2017-09-02T10:41:46.202Z,26.30
2017-09-02T10:44:13.664Z,26.40
2017-09-02T10:46:41.161Z,26.90
2017-09-02T10:49:08.647Z,26.50
2017-09-02T10:51:36.115Z,26.90
2017-09-02T10:54:03.591Z,27.10
2017-09-02T10:56:31.059Z,25.90
2017-09-02T10:58:58.511Z,25.40
2017-09-02T11:01:26.000Z,25.50
2017-09-02T11:03:53.571Z,25.10
2017-09-02T11:06:21.014Z,24.50
2017-09-02T11:08:48.490Z,23.10
2017-09-02T11:11:15.943Z,23.30
2017-09-02T11:13:43.419Z,24.30
2017-09-02T11:16:10.879Z,25.00
2017-09-02T11:18:38.356Z,26.10
2017-09-02T11:21:05.836Z,27.20
2017-09-02T11:23:33.291Z,27.40
2017-09-02T11:26:00.766Z,26.30
2017-09-02T11:28:28.231Z,24.80
2017-09-02T11:30:55.703Z,24.50
2017-09-02T11:33:23.179Z,25.60
2017-09-02T11:35:50.639Z,27.00
2017-09-02T11:38:18.124Z,27.30
2017-09-02T11:40:45.602Z,27.90
2017-09-02T11:43:13.062Z,28.50
2017-09-02T11:45:40.548Z,28.20
2017-09-02T11:48:08.012Z,28.80
2017-09-02T11:50:35.500Z,28.90
2017-09-02T11:53:03.718Z,28.90
2017-09-02T11:55:31.203Z,28.80
2017-09-02T11:57:58.655Z,27.20
2017-09-02T12:00:26.115Z,26.80
2017-09-02T12:02:53.579Z,26.90
2017-09-02T12:05:21.057Z,27.50
2017-09-02T12:07:48.536Z,27.50
2017-09-02T12:10:16.001Z,28.00
2017-09-02T12:12:43.568Z,27.60
2017-09-02T12:15:11.029Z,27.20
2017-09-02T12:17:38.490Z,28.10
2017-09-02T12:20:06.032Z,28.40
2017-09-02T12:22:33.590Z,29.10
2017-09-02T12:25:01.059Z,27.70
2017-09-02T12:27:28.604Z,27.40
2017-09-02T12:29:56.075Z,27.90
2017-09-02T12:32:23.533Z,27.70
2017-09-02T12:34:51.006Z,28.20
2017-09-02T12:37:18.471Z,28.70
2017-09-02T12:39:45.988Z,29.10
2017-09-02T12:42:13.451Z,29.40
2017-09-02T12:44:40.932Z,27.70
2017-09-02T12:47:08.416Z,27.30
2017-09-02T12:49:35.864Z,27.70
2017-09-02T12:52:03.331Z,26.80
2017-09-02T12:54:30.798Z,26.40
2017-09-02T12:56:59.017Z,26.80
2017-09-02T12:59:26.484Z,26.80
2017-09-02T13:01:53.941Z,27.00
2017-09-02T13:04:21.424Z,27.30
2017-09-02T13:06:48.883Z,27.50
2017-09-02T13:09:16.339Z,27.40
2017-09-02T13:11:43.824Z,26.40
2017-09-02T13:14:11.311Z,25.60
2017-09-02T13:16:38.783Z,24.50
2017-09-02T13:19:06.247Z,23.70
2017-09-02T13:21:33.693Z,22.70
2017-09-02T13:24:01.159Z,21.90
2017-09-02T13:26:28.610Z,22.10
2017-09-02T13:28:56.091Z,22.70
2017-09-02T13:31:23.552Z,23.00
2017-09-02T13:33:51.028Z,23.00
2017-09-02T13:36:18.483Z,22.80
2017-09-02T13:38:45.966Z,22.50
2017-09-02T13:41:13.434Z,22.90
2017-09-02T13:43:40.912Z,23.50
2017-09-02T13:46:08.367Z,24.00
2017-09-02T13:48:35.848Z,24.00
2017-09-02T13:51:03.314Z,24.10
2017-09-02T13:53:30.801Z,24.00
2017-09-02T13:55:58.275Z,23.70
2017-09-02T13:58:25.727Z,23.60
2017-09-02T14:00:53.207Z,23.70
2017-09-02T14:03:20.660Z,23.70
2017-09-02T14:05:48.133Z,23.30
2017-09-02T14:08:15.640Z,22.80
2017-09-02T14:10:43.106Z,22.90
2017-09-02T14:13:10.573Z,23.00
2017-09-02T14:15:38.046Z,23.10
2017-09-02T14:18:05.569Z,23.10
2017-09-02T14:20:33.126Z,23.40
2017-09-02T14:23:00.639Z,23.40
2017-09-02T14:25:28.108Z,23.20
2017-09-02T14:27:55.575Z,23.20
2017-09-02T14:30:23.039Z,23.40
2017-09-02T14:32:50.517Z,23.50
2017-09-02T14:35:17.987Z,23.70
2017-09-02T14:37:45.455Z,23.80
2017-09-02T14:40:12.911Z,23.80
2017-09-02T14:42:40.379Z,23.30
2017-09-02T14:45:07.850Z,23.10
2017-09-02T14:47:35.348Z,23.10
2017-09-02T14:50:02.813Z,23.30
2017-09-02T14:52:30.274Z,23.50
2017-09-02T14:54:57.750Z,23.70
2017-09-02T14:57:25.210Z,23.80
2017-09-02T14:59:52.687Z,24.00
2017-09-02T15:02:20.163Z,23.90
2017-09-02T15:04:47.672Z,23.80
2017-09-02T15:07:15.143Z,23.70
2017-09-02T15:09:42.599Z,23.90
2017-09-02T15:12:10.051Z,23.40
2017-09-02T15:14:37.535Z,23.40
2017-09-02T15:17:05.758Z,22.50
2017-09-02T15:19:33.243Z,22.40
2017-09-02T15:22:00.687Z,22.10
2017-09-02T15:24:28.142Z,21.90
2017-09-02T15:26:55.624Z,22.00
2017-09-02T15:29:23.090Z,22.20
2017-09-02T15:31:50.560Z,22.30
2017-09-02T15:34:18.036Z,22.00
2017-09-02T15:36:45.496Z,21.60
2017-09-02T15:39:12.970Z,21.30
2017-09-02T15:41:40.435Z,21.00
2017-09-02T15:44:07.892Z,21.00
2017-09-02T15:46:35.425Z,21.30
2017-09-02T15:49:02.888Z,21.30
2017-09-02T15:51:30.363Z,21.50
2017-09-02T15:53:57.823Z,21.40
2017-09-02T15:56:25.279Z,21.30
2017-09-02T15:58:52.767Z,21.20
2017-09-02T16:01:20.219Z,21.10
2017-09-02T16:03:47.695Z,21.10
2017-09-02T16:06:15.163Z,21.00
2017-09-02T16:08:42.651Z,21.00
2017-09-02T16:11:10.115Z,21.00
2017-09-02T16:13:37.562Z,21.00
2017-09-02T16:16:05.051Z,21.00
2017-09-02T16:18:32.500Z,21.10
2017-09-02T16:20:59.968Z,21.10
2017-09-02T16:23:27.434Z,20.90
2017-09-02T16:25:54.898Z,20.80
2017-09-02T16:28:22.383Z,20.80
2017-09-02T16:30:49.851Z,20.70
2017-09-02T16:33:17.335Z,20.60
2017-09-02T16:35:44.787Z,20.70
2017-09-02T16:38:12.238Z,20.70
2017-09-02T16:40:39.721Z,20.70
2017-09-02T16:43:07.176Z,20.70
2017-09-02T16:45:34.646Z,20.60
2017-09-02T16:48:02.127Z,20.70
2017-09-02T16:50:29.598Z,20.70
2017-09-02T16:52:57.076Z,20.50
2017-09-02T16:55:24.531Z,20.40
2017-09-02T16:57:52.016Z,20.40
2017-09-02T17:00:19.467Z,20.30
2017-09-02T17:02:46.923Z,20.30
2017-09-02T17:05:14.391Z,20.30
2017-09-02T17:07:41.843Z,20.30
2017-09-02T17:10:09.311Z,20.10
2017-09-02T17:12:36.812Z,20.00
2017-09-02T17:15:04.278Z,19.90
2017-09-02T17:17:31.750Z,20.00
2017-09-02T17:19:59.226Z,19.90
2017-09-02T17:22:26.678Z,19.90
2017-09-02T17:24:54.144Z,19.70
2017-09-02T17:27:21.603Z,19.60
2017-09-02T17:29:49.063Z,19.50
2017-09-02T17:32:16.534Z,19.30
2017-09-02T17:34:44.018Z,19.10
2017-09-02T17:37:11.472Z,19.00
2017-09-02T17:39:38.944Z,18.80
2017-09-02T17:42:06.424Z,18.70
2017-09-02T17:44:33.887Z,18.60
2017-09-02T17:47:01.339Z,18.60
2017-09-02T17:49:28.824Z,18.40
2017-09-02T17:51:56.265Z,18.30
2017-09-02T17:54:24.507Z,18.10
2017-09-02T17:56:51.975Z,18.10
2017-09-02T17:59:19.443Z,17.90
2017-09-02T18:01:46.910Z,17.90
2017-09-02T18:04:14.507Z,17.80
2017-09-02T18:06:42.314Z,17.70
2017-09-02T18:09:09.768Z,17.60
2017-09-02T18:11:37.220Z,17.40
2017-09-02T18:14:04.694Z,17.20
2017-09-02T18:16:32.195Z,17.20
2017-09-02T18:18:59.670Z,17.10
2017-09-02T18:21:27.143Z,17.00
2017-09-02T18:23:54.606Z,16.90
2017-09-02T18:26:22.073Z,16.80
2017-09-02T18:28:49.543Z,16.70
2017-09-02T18:31:17.004Z,16.60
2017-09-02T18:33:44.493Z,16.60
2017-09-02T18:36:11.975Z,16.50
2017-09-02T18:38:39.419Z,16.40
2017-09-02T18:41:06.891Z,16.40
2017-09-02T18:43:34.359Z,16.30
2017-09-02T18:46:01.835Z,16.20
2017-09-02T18:48:29.304Z,16.10
2017-09-02T18:50:56.783Z,16.00
2017-09-02T18:53:24.244Z,15.90
2017-09-02T18:55:51.708Z,15.90
2017-09-02T18:58:19.177Z,15.80
2017-09-02T19:00:46.651Z,15.80
2017-09-02T19:03:14.127Z,15.70
2017-09-02T19:05:41.599Z,15.60
2017-09-02T19:08:09.064Z,15.60
2017-09-02T19:10:36.552Z,15.50
2017-09-02T19:13:04.011Z,15.30
2017-09-02T19:15:31.483Z,15.20
2017-09-02T19:17:58.938Z,15.20
2017-09-02T19:20:26.427Z,15.10
2017-09-02T19:22:53.879Z,15.00
2017-09-02T19:25:21.346Z,15.00
2017-09-02T19:27:48.811Z,14.90
2017-09-02T19:30:16.290Z,14.90
2017-09-02T19:32:43.763Z,14.80
2017-09-02T19:35:11.222Z,14.70
2017-09-02T19:37:38.688Z,14.60
2017-09-02T19:40:06.147Z,14.40
2017-09-02T19:42:33.612Z,14.20
2017-09-02T19:45:01.074Z,14.10
2017-09-02T19:47:28.536Z,14.00
2017-09-02T19:49:56.002Z,14.10
2017-09-02T19:52:23.480Z,14.00
2017-09-02T19:54:50.959Z,13.90
2017-09-02T19:57:18.416Z,13.80
2017-09-02T19:59:45.870Z,13.70
2017-09-02T20:02:13.359Z,13.60
2017-09-02T20:04:40.831Z,13.60
2017-09-02T20:07:08.290Z,13.60
2017-09-02T20:09:35.764Z,13.60
2017-09-02T20:12:03.252Z,13.50
2017-09-02T20:14:30.723Z,13.50
2017-09-02T20:16:58.175Z,13.50
2017-09-02T20:19:25.654Z,13.50
2017-09-02T20:21:53.115Z,13.40
2017-09-02T20:24:20.562Z,13.20
2017-09-02T20:26:48.034Z,13.20
2017-09-02T20:29:15.503Z,13.10
2017-09-02T20:31:43.108Z,12.90
2017-09-02T20:34:10.559Z,12.90
2017-09-02T20:36:38.020Z,12.80
2017-09-02T20:39:05.522Z,12.90
2017-09-02T20:41:32.998Z,12.90
2017-09-02T20:44:01.238Z,12.80
2017-09-02T20:46:28.690Z,12.80
2017-09-02T20:48:56.155Z,12.90
2017-09-02T20:51:23.626Z,12.80
2017-09-02T20:53:51.102Z,12.70
2017-09-02T20:56:18.559Z,12.70
2017-09-02T20:58:46.052Z,12.70
2017-09-02T21:01:13.606Z,12.80
2017-09-02T21:03:41.057Z,12.90
2017-09-02T21:06:08.522Z,12.80
2017-09-02T21:08:35.995Z,12.80
2017-09-02T21:11:03.467Z,12.80
2017-09-02T21:13:30.922Z,12.70
2017-09-02T21:15:58.380Z,12.60
2017-09-02T21:18:25.842Z,12.60
2017-09-02T21:20:53.323Z,12.50
2017-09-02T21:23:20.794Z,12.30
2017-09-02T21:25:48.261Z,12.30
2017-09-02T21:28:15.720Z,12.20
2017-09-02T21:30:43.190Z,12.40
2017-09-02T21:33:10.676Z,12.30
2017-09-02T21:35:38.147Z,12.30
2017-09-02T21:38:05.611Z,12.20
2017-09-02T21:40:33.103Z,12.20
2017-09-02T21:43:00.566Z,12.20
2017-09-02T21:45:28.049Z,12.20
2017-09-02T21:47:55.531Z,12.20
2017-09-02T21:50:22.987Z,12.20
2017-09-02T21:52:50.474Z,12.10
2017-09-02T21:55:18.713Z,11.90
2017-09-02T21:57:46.203Z,11.90
2017-09-02T22:00:13.679Z,11.90
2017-09-02T22:02:41.146Z,12.00
2017-09-02T22:05:08.628Z,12.00
2017-09-02T22:07:36.084Z,11.90
2017-09-02T22:10:03.607Z,11.90
2017-09-02T22:12:31.077Z,11.90
2017-09-02T22:14:58.527Z,11.80
2017-09-02T22:17:25.994Z,11.70
2017-09-02T22:19:53.463Z,11.70
2017-09-02T22:22:20.935Z,11.70
2017-09-02T22:24:48.447Z,11.70
2017-09-02T22:27:15.926Z,11.70
2017-09-02T22:29:43.395Z,11.50
2017-09-02T22:32:10.847Z,11.40
2017-09-02T22:34:39.091Z,11.40
2017-09-02T22:37:06.540Z,11.40
2017-09-02T22:39:34.027Z,11.40
2017-09-02T22:42:01.523Z,11.40
2017-09-02T22:44:29.814Z,11.30
2017-09-02T22:46:57.308Z,11.20
2017-09-02T22:49:24.770Z,11.20
2017-09-02T22:51:52.257Z,11.20
2017-09-02T22:54:19.716Z,11.20
2017-09-02T22:56:47.171Z,11.20
2017-09-02T22:59:14.645Z,11.30
2017-09-02T23:01:42.862Z,11.30
2017-09-02T23:04:10.347Z,11.30
2017-09-02T23:06:37.808Z,11.30
2017-09-02T23:09:05.258Z,11.30
2017-09-02T23:11:32.735Z,11.20
2017-09-02T23:14:00.216Z,11.00
2017-09-02T23:16:27.695Z,11.10
2017-09-02T23:18:55.163Z,11.10
2017-09-02T23:21:22.627Z,11.10
2017-09-02T23:23:50.115Z,11.00
2017-09-02T23:26:17.576Z,11.00
2017-09-02T23:28:45.034Z,11.00
2017-09-02T23:31:12.502Z,11.10
2017-09-02T23:33:39.988Z,11.00
2017-09-02T23:36:07.440Z,10.90
2017-09-02T23:38:34.922Z,10.80
2017-09-02T23:41:02.396Z,10.80
2017-09-02T23:43:29.851Z,10.70
2017-09-02T23:45:57.325Z,10.70
2017-09-02T23:48:24.787Z,10.70
2017-09-02T23:50:52.281Z,10.70
2017-09-02T23:53:19.747Z,10.60
2017-09-02T23:55:47.206Z,10.60
2017-09-02T23:58:14.682Z,10.70
